Plum Coulee, Canada
Current Conditions -  °F | °C
As of 2:55 PM on Tuesday 21 Oct 2014 (Local Time) from K96D Reporting Station
NA  
Wind Chill: 63°   Ceiling: NA
Heat Index: 63°   Visibility: 10mi
Dew Point: 43°   Wind: 26mph
Humidity: 48%   Direction: 140°SE
Pressure: 29.83"   Gusts: 32mph
Location:  49.18°N, 97.77°W
Report Text: K96D 211955Z AUTO 14023G28KT 10SM 17/06 A2983 RMK AO2
Loading
Personal Weather Stations






























Interactive Weather Map
Tropical Storm Tracking
New forecast layout! Learn more

10-Day Weather Forecast

Advertisements
Track Severe Weather on mobile